Aviation Digital Data Service (ADDS)

Output produced by METARs form (1340 UTC 04 July 2015)
found at http://aviationweather.gov/adds/metars/
 
KARA 041136Z 0412/0512 VRB03KT P6SM VCSH FEW025 OVC250 
     FM041500 21008KT P6SM VCTS SCT035CB OVC250 
     FM050200 VRB03KT P6SM OVC250